sensor_id;sensor_type;location;lat;lon;timestamp;P1;durP1;ratioP1;P2;durP2;ratioP2
74658;SDS011;63186;51.204;6.536;2022-09-09T00:04:45;3.83;;;1.80;;
74658;SDS011;63186;51.204;6.536;2022-09-09T00:18:22;7.57;;;2.80;;
74658;SDS011;63186;51.204;6.536;2022-09-09T00:20:56;6.47;;;2.60;;
74658;SDS011;63186;51.204;6.536;2022-09-09T00:23:37;7.25;;;2.90;;
74658;SDS011;63186;51.204;6.536;2022-09-09T00:26:22;4.85;;;2.63;;
74658;SDS011;63186;51.204;6.536;2022-09-09T00:31:33;6.78;;;2.70;;
74658;SDS011;63186;51.204;6.536;2022-09-09T00:34:09;6.03;;;2.33;;
74658;SDS011;63186;51.204;6.536;2022-09-09T00:36:38;5.88;;;2.63;;
74658;SDS011;63186;51.204;6.536;2022-09-09T00:39:04;6.18;;;1.90;;
74658;SDS011;63186;51.204;6.536;2022-09-09T00:44:17;5.50;;;2.67;;
74658;SDS011;63186;51.204;6.536;2022-09-09T00:50:03;7.53;;;2.15;;
74658;SDS011;63186;51.204;6.536;2022-09-09T00:55:41;6.57;;;1.98;;
74658;SDS011;63186;51.204;6.536;2022-09-09T00:58:08;5.60;;;2.20;;
74658;SDS011;63186;51.204;6.536;2022-09-09T01:00:36;5.97;;;2.30;;
74658;SDS011;63186;51.204;6.536;2022-09-09T01:03:15;5.40;;;2.40;;
74658;SDS011;63186;51.204;6.536;2022-09-09T01:05:49;7.82;;;2.03;;
74658;SDS011;63186;51.204;6.536;2022-09-09T01:11:10;3.83;;;1.88;;
74658;SDS011;63186;51.204;6.536;2022-09-09T01:13:45;6.53;;;2.15;;
74658;SDS011;63186;51.204;6.536;2022-09-09T01:16:14;5.72;;;2.08;;
74658;SDS011;63186;51.204;6.536;2022-09-09T01:18:45;5.85;;;1.75;;
74658;SDS011;63186;51.204;6.536;2022-09-09T01:21:31;7.13;;;2.08;;
74658;SDS011;63186;51.204;6.536;2022-09-09T01:26:52;4.95;;;1.90;;
74658;SDS011;63186;51.204;6.536;2022-09-09T01:29:22;4.40;;;1.80;;
74658;SDS011;63186;51.204;6.536;2022-09-09T01:31:58;5.05;;;1.75;;
74658;SDS011;63186;51.204;6.536;2022-09-09T01:34:26;8.82;;;2.50;;
74658;SDS011;63186;51.204;6.536;2022-09-09T01:37:01;4.95;;;2.10;;
74658;SDS011;63186;51.204;6.536;2022-09-09T01:39:31;5.50;;;2.13;;
74658;SDS011;63186;51.204;6.536;2022-09-09T01:42:01;6.43;;;2.05;;
74658;SDS011;63186;51.204;6.536;2022-09-09T01:44:28;7.28;;;1.90;;
74658;SDS011;63186;51.204;6.536;2022-09-09T01:46:55;8.75;;;2.72;;
74658;SDS011;63186;51.204;6.536;2022-09-09T01:49:20;17.48;;;2.05;;
74658;SDS011;63186;51.204;6.536;2022-09-09T01:51:46;7.88;;;2.72;;
74658;SDS011;63186;51.204;6.536;2022-09-09T01:54:17;7.57;;;2.40;;
74658;SDS011;63186;51.204;6.536;2022-09-09T02:04:55;6.13;;;2.00;;
74658;SDS011;63186;51.204;6.536;2022-09-09T02:07:40;6.55;;;2.75;;
74658;SDS011;63186;51.204;6.536;2022-09-09T02:12:58;5.18;;;2.40;;
74658;SDS011;63186;51.204;6.536;2022-09-09T02:15:34;7.30;;;2.78;;
74658;SDS011;63186;51.204;6.536;2022-09-09T02:18:07;7.75;;;2.63;;
74658;SDS011;63186;51.204;6.536;2022-09-09T02:20:36;6.10;;;2.40;;
74658;SDS011;63186;51.204;6.536;2022-09-09T02:23:03;4.57;;;2.00;;
74658;SDS011;63186;51.204;6.536;2022-09-09T02:25:30;5.88;;;1.77;;
74658;SDS011;63186;51.204;6.536;2022-09-09T02:27:55;7.32;;;2.13;;
74658;SDS011;63186;51.204;6.536;2022-09-09T02:30:23;5.93;;;2.05;;
74658;SDS011;63186;51.204;6.536;2022-09-09T02:32:49;4.47;;;2.20;;
74658;SDS011;63186;51.204;6.536;2022-09-09T02:37:45;4.88;;;1.80;;
74658;SDS011;63186;51.204;6.536;2022-09-09T02:40:11;6.22;;;1.95;;
74658;SDS011;63186;51.204;6.536;2022-09-09T02:42:40;9.15;;;2.08;;
74658;SDS011;63186;51.204;6.536;2022-09-09T02:45:07;3.17;;;1.48;;
74658;SDS011;63186;51.204;6.536;2022-09-09T02:47:34;7.68;;;1.73;;
74658;SDS011;63186;51.204;6.536;2022-09-09T02:50:16;8.73;;;2.05;;
74658;SDS011;63186;51.204;6.536;2022-09-09T02:58:13;5.55;;;1.30;;
74658;SDS011;63186;51.204;6.536;2022-09-09T03:00:47;4.70;;;1.35;;
74658;SDS011;63186;51.204;6.536;2022-09-09T03:03:15;3.47;;;1.35;;
74658;SDS011;63186;51.204;6.536;2022-09-09T03:05:42;5.88;;;1.50;;
74658;SDS011;63186;51.204;6.536;2022-09-09T03:08:08;5.28;;;1.40;;
74658;SDS011;63186;51.204;6.536;2022-09-09T03:10:34;6.43;;;1.60;;
74658;SDS011;63186;51.204;6.536;2022-09-09T03:13:00;5.88;;;1.63;;
74658;SDS011;63186;51.204;6.536;2022-09-09T03:15:25;5.40;;;1.55;;
74658;SDS011;63186;51.204;6.536;2022-09-09T03:17:55;7.78;;;1.98;;
74658;SDS011;63186;51.204;6.536;2022-09-09T03:20:21;7.35;;;1.70;;
74658;SDS011;63186;51.204;6.536;2022-09-09T03:22:47;6.90;;;2.00;;
74658;SDS011;63186;51.204;6.536;2022-09-09T03:25:13;5.53;;;1.90;;
74658;SDS011;63186;51.204;6.536;2022-09-09T03:27:38;5.20;;;1.70;;
74658;SDS011;63186;51.204;6.536;2022-09-09T03:30:03;7.50;;;2.30;;
74658;SDS011;63186;51.204;6.536;2022-09-09T03:32:29;9.15;;;2.17;;
74658;SDS011;63186;51.204;6.536;2022-09-09T03:34:56;6.07;;;1.80;;
74658;SDS011;63186;51.204;6.536;2022-09-09T03:37:21;7.20;;;1.80;;
74658;SDS011;63186;51.204;6.536;2022-09-09T03:39:47;7.32;;;1.83;;
74658;SDS011;63186;51.204;6.536;2022-09-09T03:42:13;7.78;;;1.90;;
74658;SDS011;63186;51.204;6.536;2022-09-09T03:44:45;5.53;;;2.00;;
74658;SDS011;63186;51.204;6.536;2022-09-09T03:47:15;6.72;;;1.88;;
74658;SDS011;63186;51.204;6.536;2022-09-09T03:49:42;6.22;;;2.20;;
74658;SDS011;63186;51.204;6.536;2022-09-09T03:52:08;8.43;;;2.30;;
74658;SDS011;63186;51.204;6.536;2022-09-09T03:54:33;7.55;;;2.17;;
74658;SDS011;63186;51.204;6.536;2022-09-09T03:57:00;7.68;;;2.22;;
74658;SDS011;63186;51.204;6.536;2022-09-09T03:59:25;5.03;;;2.10;;
74658;SDS011;63186;51.204;6.536;2022-09-09T04:01:51;8.32;;;2.40;;
74658;SDS011;63186;51.204;6.536;2022-09-09T04:04:16;6.53;;;2.13;;
74658;SDS011;63186;51.204;6.536;2022-09-09T04:06:41;10.17;;;2.23;;
74658;SDS011;63186;51.204;6.536;2022-09-09T04:09:07;6.38;;;2.15;;
74658;SDS011;63186;51.204;6.536;2022-09-09T04:11:32;8.10;;;1.83;;
74658;SDS011;63186;51.204;6.536;2022-09-09T04:13:58;8.27;;;2.45;;
74658;SDS011;63186;51.204;6.536;2022-09-09T04:16:23;7.17;;;1.90;;
74658;SDS011;63186;51.204;6.536;2022-09-09T04:18:49;7.95;;;2.30;;
74658;SDS011;63186;51.204;6.536;2022-09-09T04:21:14;10.13;;;2.72;;
74658;SDS011;63186;51.204;6.536;2022-09-09T04:23:41;8.80;;;2.42;;
74658;SDS011;63186;51.204;6.536;2022-09-09T04:26:06;6.65;;;2.33;;
74658;SDS011;63186;51.204;6.536;2022-09-09T04:28:33;5.65;;;2.55;;
74658;SDS011;63186;51.204;6.536;2022-09-09T04:31:04;7.85;;;2.75;;
74658;SDS011;63186;51.204;6.536;2022-09-09T04:33:30;7.65;;;2.17;;
74658;SDS011;63186;51.204;6.536;2022-09-09T04:35:56;7.57;;;2.13;;
74658;SDS011;63186;51.204;6.536;2022-09-09T04:38:22;5.15;;;2.00;;
74658;SDS011;63186;51.204;6.536;2022-09-09T04:40:51;7.75;;;2.25;;
74658;SDS011;63186;51.204;6.536;2022-09-09T04:43:18;8.02;;;2.20;;
74658;SDS011;63186;51.204;6.536;2022-09-09T04:45:47;5.93;;;2.35;;
74658;SDS011;63186;51.204;6.536;2022-09-09T04:48:14;5.40;;;2.10;;
74658;SDS011;63186;51.204;6.536;2022-09-09T04:50:39;10.87;;;2.40;;
74658;SDS011;63186;51.204;6.536;2022-09-09T04:53:05;7.10;;;2.47;;
74658;SDS011;63186;51.204;6.536;2022-09-09T04:55:31;6.18;;;2.33;;
74658;SDS011;63186;51.204;6.536;2022-09-09T04:57:58;7.25;;;2.08;;
74658;SDS011;63186;51.204;6.536;2022-09-09T05:00:28;6.18;;;2.03;;
74658;SDS011;63186;51.204;6.536;2022-09-09T05:02:53;8.40;;;1.92;;
74658;SDS011;63186;51.204;6.536;2022-09-09T05:05:18;8.37;;;2.10;;
74658;SDS011;63186;51.204;6.536;2022-09-09T05:07:44;6.70;;;2.30;;
74658;SDS011;63186;51.204;6.536;2022-09-09T05:10:10;7.70;;;2.00;;
74658;SDS011;63186;51.204;6.536;2022-09-09T05:12:36;7.23;;;1.87;;
74658;SDS011;63186;51.204;6.536;2022-09-09T05:15:01;8.40;;;2.70;;
74658;SDS011;63186;51.204;6.536;2022-09-09T05:17:26;6.68;;;2.03;;
74658;SDS011;63186;51.204;6.536;2022-09-09T05:19:52;5.60;;;1.80;;
74658;SDS011;63186;51.204;6.536;2022-09-09T05:22:20;8.07;;;2.17;;
74658;SDS011;63186;51.204;6.536;2022-09-09T05:24:46;5.03;;;2.33;;
74658;SDS011;63186;51.204;6.536;2022-09-09T05:27:11;7.30;;;2.33;;
74658;SDS011;63186;51.204;6.536;2022-09-09T05:29:37;7.10;;;2.10;;
74658;SDS011;63186;51.204;6.536;2022-09-09T05:32:03;7.63;;;1.77;;
74658;SDS011;63186;51.204;6.536;2022-09-09T05:34:29;5.32;;;1.63;;
74658;SDS011;63186;51.204;6.536;2022-09-09T05:36:54;11.43;;;2.50;;
74658;SDS011;63186;51.204;6.536;2022-09-09T05:39:19;3.70;;;1.63;;
74658;SDS011;63186;51.204;6.536;2022-09-09T05:41:44;7.10;;;2.30;;
74658;SDS011;63186;51.204;6.536;2022-09-09T05:44:10;10.80;;;2.30;;
74658;SDS011;63186;51.204;6.536;2022-09-09T05:46:35;8.32;;;1.98;;
74658;SDS011;63186;51.204;6.536;2022-09-09T05:49:01;8.63;;;2.47;;
74658;SDS011;63186;51.204;6.536;2022-09-09T05:51:28;7.97;;;2.25;;
74658;SDS011;63186;51.204;6.536;2022-09-09T05:53:56;7.50;;;1.80;;
74658;SDS011;63186;51.204;6.536;2022-09-09T05:58:54;10.77;;;2.17;;
74658;SDS011;63186;51.204;6.536;2022-09-09T06:01:21;8.85;;;2.25;;
74658;SDS011;63186;51.204;6.536;2022-09-09T06:03:48;5.32;;;2.08;;
74658;SDS011;63186;51.204;6.536;2022-09-09T06:06:16;4.95;;;1.88;;
74658;SDS011;63186;51.204;6.536;2022-09-09T06:08:43;5.13;;;1.98;;
74658;SDS011;63186;51.204;6.536;2022-09-09T06:13:36;7.97;;;1.95;;
74658;SDS011;63186;51.204;6.536;2022-09-09T06:16:04;6.82;;;1.85;;
74658;SDS011;63186;51.204;6.536;2022-09-09T06:18:30;3.97;;;1.60;;
74658;SDS011;63186;51.204;6.536;2022-09-09T06:20:59;6.57;;;2.00;;
74658;SDS011;63186;51.204;6.536;2022-09-09T06:23:26;6.47;;;1.60;;
74658;SDS011;63186;51.204;6.536;2022-09-09T06:26:03;6.03;;;1.92;;
74658;SDS011;63186;51.204;6.536;2022-09-09T06:28:28;7.00;;;1.75;;
74658;SDS011;63186;51.204;6.536;2022-09-09T06:30:57;7.57;;;1.70;;
74658;SDS011;63186;51.204;6.536;2022-09-09T06:33:26;7.88;;;1.83;;
74658;SDS011;63186;51.204;6.536;2022-09-09T06:35:56;6.50;;;1.50;;
74658;SDS011;63186;51.204;6.536;2022-09-09T06:38:22;6.63;;;1.48;;
74658;SDS011;63186;51.204;6.536;2022-09-09T06:40:54;5.10;;;1.40;;
74658;SDS011;63186;51.204;6.536;2022-09-09T06:43:20;7.28;;;2.28;;
74658;SDS011;63186;51.204;6.536;2022-09-09T06:45:56;7.80;;;1.52;;
74658;SDS011;63186;51.204;6.536;2022-09-09T06:48:23;6.97;;;1.65;;
74658;SDS011;63186;51.204;6.536;2022-09-09T06:50:50;5.25;;;1.13;;
74658;SDS011;63186;51.204;6.536;2022-09-09T06:53:17;6.38;;;1.15;;
74658;SDS011;63186;51.204;6.536;2022-09-09T06:55:44;5.38;;;1.17;;
74658;SDS011;63186;51.204;6.536;2022-09-09T06:58:09;10.18;;;1.70;;
74658;SDS011;63186;51.204;6.536;2022-09-09T07:00:35;6.83;;;1.50;;
74658;SDS011;63186;51.204;6.536;2022-09-09T07:03:02;8.63;;;1.65;;
74658;SDS011;63186;51.204;6.536;2022-09-09T07:05:28;6.60;;;1.40;;
74658;SDS011;63186;51.204;6.536;2022-09-09T07:07:53;6.50;;;1.37;;
74658;SDS011;63186;51.204;6.536;2022-09-09T07:10:18;5.03;;;1.20;;
74658;SDS011;63186;51.204;6.536;2022-09-09T07:12:44;3.57;;;1.50;;
74658;SDS011;63186;51.204;6.536;2022-09-09T07:15:09;7.90;;;1.70;;
74658;SDS011;63186;51.204;6.536;2022-09-09T07:17:34;6.82;;;1.10;;
74658;SDS011;63186;51.204;6.536;2022-09-09T07:20:00;4.90;;;1.20;;
74658;SDS011;63186;51.204;6.536;2022-09-09T07:22:27;6.90;;;1.60;;
74658;SDS011;63186;51.204;6.536;2022-09-09T07:24:53;5.80;;;1.30;;
74658;SDS011;63186;51.204;6.536;2022-09-09T07:27:18;8.63;;;1.43;;
74658;SDS011;63186;51.204;6.536;2022-09-09T07:29:44;11.27;;;1.77;;
74658;SDS011;63186;51.204;6.536;2022-09-09T07:32:10;7.07;;;1.30;;
74658;SDS011;63186;51.204;6.536;2022-09-09T07:34:35;5.07;;;1.60;;
74658;SDS011;63186;51.204;6.536;2022-09-09T07:37:01;5.72;;;1.27;;
74658;SDS011;63186;51.204;6.536;2022-09-09T07:39:26;8.18;;;1.40;;
74658;SDS011;63186;51.204;6.536;2022-09-09T07:41:52;4.20;;;1.20;;
74658;SDS011;63186;51.204;6.536;2022-09-09T07:44:20;6.45;;;1.17;;
74658;SDS011;63186;51.204;6.536;2022-09-09T07:49:12;4.63;;;1.00;;
74658;SDS011;63186;51.204;6.536;2022-09-09T07:51:39;4.97;;;1.23;;
74658;SDS011;63186;51.204;6.536;2022-09-09T07:56:34;4.32;;;1.10;;
74658;SDS011;63186;51.204;6.536;2022-09-09T07:59:00;6.30;;;1.25;;
74658;SDS011;63186;51.204;6.536;2022-09-09T08:01:27;9.40;;;1.33;;
74658;SDS011;63186;51.204;6.536;2022-09-09T08:04:00;13.68;;;1.70;;
74658;SDS011;63186;51.204;6.536;2022-09-09T08:06:28;6.55;;;1.60;;
74658;SDS011;63186;51.204;6.536;2022-09-09T08:08:56;4.85;;;1.15;;
74658;SDS011;63186;51.204;6.536;2022-09-09T08:11:22;10.88;;;1.63;;
74658;SDS011;63186;51.204;6.536;2022-09-09T08:13:49;11.18;;;1.85;;
74658;SDS011;63186;51.204;6.536;2022-09-09T08:16:17;4.47;;;1.15;;
74658;SDS011;63186;51.204;6.536;2022-09-09T08:18:50;6.72;;;1.42;;
74658;SDS011;63186;51.204;6.536;2022-09-09T08:21:20;7.18;;;1.30;;
74658;SDS011;63186;51.204;6.536;2022-09-09T08:23:47;4.70;;;1.00;;
74658;SDS011;63186;51.204;6.536;2022-09-09T08:26:16;6.95;;;1.30;;
74658;SDS011;63186;51.204;6.536;2022-09-09T08:28:52;5.05;;;1.08;;
74658;SDS011;63186;51.204;6.536;2022-09-09T08:31:20;4.85;;;1.02;;
74658;SDS011;63186;51.204;6.536;2022-09-09T08:33:47;5.97;;;1.08;;
74658;SDS011;63186;51.204;6.536;2022-09-09T08:36:14;6.93;;;1.70;;
74658;SDS011;63186;51.204;6.536;2022-09-09T08:38:42;5.45;;;1.23;;
74658;SDS011;63186;51.204;6.536;2022-09-09T08:43:43;4.32;;;1.15;;
74658;SDS011;63186;51.204;6.536;2022-09-09T08:46:14;5.43;;;1.50;;
74658;SDS011;63186;51.204;6.536;2022-09-09T08:51:29;7.32;;;1.67;;
74658;SDS011;63186;51.204;6.536;2022-09-09T08:53:58;6.18;;;1.35;;
74658;SDS011;63186;51.204;6.536;2022-09-09T08:56:27;3.83;;;1.20;;
74658;SDS011;63186;51.204;6.536;2022-09-09T08:58:56;8.45;;;1.40;;
74658;SDS011;63186;51.204;6.536;2022-09-09T09:01:39;6.65;;;1.23;;
74658;SDS011;63186;51.204;6.536;2022-09-09T09:12:28;6.00;;;1.35;;
74658;SDS011;63186;51.204;6.536;2022-09-09T09:14:57;6.60;;;1.27;;
74658;SDS011;63186;51.204;6.536;2022-09-09T09:17:25;5.05;;;1.42;;
74658;SDS011;63186;51.204;6.536;2022-09-09T09:19:53;7.70;;;1.20;;
74658;SDS011;63186;51.204;6.536;2022-09-09T09:24:50;5.88;;;1.55;;
74658;SDS011;63186;51.204;6.536;2022-09-09T09:30:23;5.80;;;1.40;;
74658;SDS011;63186;51.204;6.536;2022-09-09T09:32:54;3.92;;;1.20;;
74658;SDS011;63186;51.204;6.536;2022-09-09T09:35:23;5.18;;;1.40;;
74658;SDS011;63186;51.204;6.536;2022-09-09T09:37:48;2.50;;;0.80;;
74658;SDS011;63186;51.204;6.536;2022-09-09T09:40:15;5.18;;;0.90;;
74658;SDS011;63186;51.204;6.536;2022-09-09T09:42:49;3.58;;;1.10;;
74658;SDS011;63186;51.204;6.536;2022-09-09T09:45:34;4.45;;;1.00;;
74658;SDS011;63186;51.204;6.536;2022-09-09T09:48:09;3.40;;;0.93;;
74658;SDS011;63186;51.204;6.536;2022-09-09T09:50:39;3.58;;;1.05;;
74658;SDS011;63186;51.204;6.536;2022-09-09T09:56:02;2.47;;;0.80;;
74658;SDS011;63186;51.204;6.536;2022-09-09T09:58:31;3.50;;;1.00;;
74658;SDS011;63186;51.204;6.536;2022-09-09T10:01:03;2.83;;;0.95;;
74658;SDS011;63186;51.204;6.536;2022-09-09T10:03:32;3.80;;;1.05;;
74658;SDS011;63186;51.204;6.536;2022-09-09T10:06:02;7.88;;;1.20;;
74658;SDS011;63186;51.204;6.536;2022-09-09T10:08:28;6.68;;;1.30;;
74658;SDS011;63186;51.204;6.536;2022-09-09T10:10:59;3.60;;;0.80;;
74658;SDS011;63186;51.204;6.536;2022-09-09T10:19:15;4.57;;;1.13;;
74658;SDS011;63186;51.204;6.536;2022-09-09T10:30:16;4.53;;;0.85;;
74658;SDS011;63186;51.204;6.536;2022-09-09T10:35:33;4.45;;;1.10;;
74658;SDS011;63186;51.204;6.536;2022-09-09T10:38:12;3.53;;;0.90;;
74658;SDS011;63186;51.204;6.536;2022-09-09T10:40:45;5.72;;;0.95;;
74658;SDS011;63186;51.204;6.536;2022-09-09T10:55:00;1.02;;;0.82;;
74658;SDS011;63186;51.204;6.536;2022-09-09T10:57:43;3.40;;;1.00;;
74658;SDS011;63186;51.204;6.536;2022-09-09T11:03:03;2.88;;;0.80;;
74658;SDS011;63186;51.204;6.536;2022-09-09T11:05:41;3.50;;;0.93;;
74658;SDS011;63186;51.204;6.536;2022-09-09T11:08:12;3.22;;;1.40;;
74658;SDS011;63186;51.204;6.536;2022-09-09T11:10:48;2.90;;;0.73;;
74658;SDS011;63186;51.204;6.536;2022-09-09T11:13:24;3.53;;;0.90;;
74658;SDS011;63186;51.204;6.536;2022-09-09T11:16:14;3.17;;;0.80;;
74658;SDS011;63186;51.204;6.536;2022-09-09T11:18:44;5.30;;;0.90;;
74658;SDS011;63186;51.204;6.536;2022-09-09T11:21:17;3.03;;;0.85;;
74658;SDS011;63186;51.204;6.536;2022-09-09T11:23:49;3.25;;;0.90;;
74658;SDS011;63186;51.204;6.536;2022-09-09T11:26:33;5.47;;;0.88;;
74658;SDS011;63186;51.204;6.536;2022-09-09T11:32:20;4.45;;;1.20;;
74658;SDS011;63186;51.204;6.536;2022-09-09T11:38:16;2.60;;;0.95;;
74658;SDS011;63186;51.204;6.536;2022-09-09T11:40:45;3.60;;;0.90;;
74658;SDS011;63186;51.204;6.536;2022-09-09T11:43:13;4.75;;;0.90;;
74658;SDS011;63186;51.204;6.536;2022-09-09T11:45:43;2.25;;;1.05;;
74658;SDS011;63186;51.204;6.536;2022-09-09T11:48:25;4.13;;;1.20;;
74658;SDS011;63186;51.204;6.536;2022-09-09T11:50:58;6.22;;;1.30;;
74658;SDS011;63186;51.204;6.536;2022-09-09T11:53:25;3.53;;;1.17;;
74658;SDS011;63186;51.204;6.536;2022-09-09T11:56:04;2.45;;;0.98;;
74658;SDS011;63186;51.204;6.536;2022-09-09T11:58:42;4.40;;;1.20;;
74658;SDS011;63186;51.204;6.536;2022-09-09T12:01:43;5.20;;;1.00;;
74658;SDS011;63186;51.204;6.536;2022-09-09T12:07:04;3.35;;;0.80;;
74658;SDS011;63186;51.204;6.536;2022-09-09T12:09:43;1.58;;;0.65;;
74658;SDS011;63186;51.204;6.536;2022-09-09T12:12:41;3.58;;;1.30;;
74658;SDS011;63186;51.204;6.536;2022-09-09T12:17:36;2.60;;;0.70;;
74658;SDS011;63186;51.204;6.536;2022-09-09T12:20:14;2.30;;;0.75;;
74658;SDS011;63186;51.204;6.536;2022-09-09T12:22:54;3.28;;;1.02;;
74658;SDS011;63186;51.204;6.536;2022-09-09T12:25:31;4.15;;;0.90;;
74658;SDS011;63186;51.204;6.536;2022-09-09T12:28:04;4.55;;;0.88;;
74658;SDS011;63186;51.204;6.536;2022-09-09T12:30:56;3.22;;;1.02;;
74658;SDS011;63186;51.204;6.536;2022-09-09T12:33:38;2.55;;;1.08;;
74658;SDS011;63186;51.204;6.536;2022-09-09T12:36:11;2.97;;;1.05;;
74658;SDS011;63186;51.204;6.536;2022-09-09T12:38:40;3.53;;;1.02;;
74658;SDS011;63186;51.204;6.536;2022-09-09T12:41:15;7.65;;;1.35;;
74658;SDS011;63186;51.204;6.536;2022-09-09T12:43:44;5.15;;;1.40;;
74658;SDS011;63186;51.204;6.536;2022-09-09T12:46:13;3.92;;;1.30;;
74658;SDS011;63186;51.204;6.536;2022-09-09T12:49:01;4.05;;;1.60;;
74658;SDS011;63186;51.204;6.536;2022-09-09T12:51:29;4.68;;;1.30;;
74658;SDS011;63186;51.204;6.536;2022-09-09T12:53:56;5.43;;;1.60;;
74658;SDS011;63186;51.204;6.536;2022-09-09T12:56:27;4.90;;;1.50;;
74658;SDS011;63186;51.204;6.536;2022-09-09T12:58:56;3.35;;;1.30;;
74658;SDS011;63186;51.204;6.536;2022-09-09T13:01:32;3.13;;;1.30;;
74658;SDS011;63186;51.204;6.536;2022-09-09T13:03:58;7.15;;;1.67;;
74658;SDS011;63186;51.204;6.536;2022-09-09T13:06:25;7.10;;;1.38;;
74658;SDS011;63186;51.204;6.536;2022-09-09T13:08:53;4.95;;;2.00;;
74658;SDS011;63186;51.204;6.536;2022-09-09T13:11:20;3.38;;;1.25;;
74658;SDS011;63186;51.204;6.536;2022-09-09T13:13:50;2.85;;;1.35;;
74658;SDS011;63186;51.204;6.536;2022-09-09T13:16:31;5.95;;;1.52;;
74658;SDS011;63186;51.204;6.536;2022-09-09T13:18:59;3.45;;;1.23;;
74658;SDS011;63186;51.204;6.536;2022-09-09T13:21:33;4.57;;;1.20;;
74658;SDS011;63186;51.204;6.536;2022-09-09T13:23:59;3.50;;;1.40;;
74658;SDS011;63186;51.204;6.536;2022-09-09T13:26:28;6.53;;;1.35;;
74658;SDS011;63186;51.204;6.536;2022-09-09T13:28:55;5.75;;;1.50;;
74658;SDS011;63186;51.204;6.536;2022-09-09T13:31:33;3.13;;;1.30;;
74658;SDS011;63186;51.204;6.536;2022-09-09T13:37:03;4.70;;;1.38;;
74658;SDS011;63186;51.204;6.536;2022-09-09T13:39:50;4.97;;;1.30;;
74658;SDS011;63186;51.204;6.536;2022-09-09T13:42:28;6.70;;;1.40;;
74658;SDS011;63186;51.204;6.536;2022-09-09T13:44:55;5.85;;;1.52;;
74658;SDS011;63186;51.204;6.536;2022-09-09T13:47:27;5.00;;;1.52;;
74658;SDS011;63186;51.204;6.536;2022-09-09T13:49:56;2.97;;;1.20;;
74658;SDS011;63186;51.204;6.536;2022-09-09T13:52:22;3.57;;;1.00;;
74658;SDS011;63186;51.204;6.536;2022-09-09T13:54:48;6.97;;;1.20;;
74658;SDS011;63186;51.204;6.536;2022-09-09T13:57:24;5.03;;;1.10;;
74658;SDS011;63186;51.204;6.536;2022-09-09T13:59:50;1.83;;;0.98;;
74658;SDS011;63186;51.204;6.536;2022-09-09T14:02:16;3.60;;;1.05;;
74658;SDS011;63186;51.204;6.536;2022-09-09T14:04:43;4.97;;;1.23;;
74658;SDS011;63186;51.204;6.536;2022-09-09T14:07:12;5.03;;;1.23;;
74658;SDS011;63186;51.204;6.536;2022-09-09T14:09:40;5.63;;;1.42;;
74658;SDS011;63186;51.204;6.536;2022-09-09T14:12:08;2.30;;;0.80;;
74658;SDS011;63186;51.204;6.536;2022-09-09T14:14:35;2.55;;;0.73;;
74658;SDS011;63186;51.204;6.536;2022-09-09T14:17:01;2.87;;;0.73;;
74658;SDS011;63186;51.204;6.536;2022-09-09T14:19:26;2.03;;;0.60;;
74658;SDS011;63186;51.204;6.536;2022-09-09T14:21:51;0.77;;;0.50;;
74658;SDS011;63186;51.204;6.536;2022-09-09T14:24:16;1.80;;;0.97;;
74658;SDS011;63186;51.204;6.536;2022-09-09T14:26:42;1.50;;;0.70;;
74658;SDS011;63186;51.204;6.536;2022-09-09T14:29:07;1.93;;;0.67;;
74658;SDS011;63186;51.204;6.536;2022-09-09T14:31:33;1.15;;;0.70;;
74658;SDS011;63186;51.204;6.536;2022-09-09T14:33:58;2.30;;;0.70;;
74658;SDS011;63186;51.204;6.536;2022-09-09T14:36:23;1.90;;;0.60;;
74658;SDS011;63186;51.204;6.536;2022-09-09T14:38:49;2.93;;;1.37;;
74658;SDS011;63186;51.204;6.536;2022-09-09T14:41:15;5.13;;;0.98;;
74658;SDS011;63186;51.204;6.536;2022-09-09T14:43:42;2.67;;;0.88;;
74658;SDS011;63186;51.204;6.536;2022-09-09T14:46:09;1.10;;;0.60;;
74658;SDS011;63186;51.204;6.536;2022-09-09T14:48:36;0.95;;;0.47;;
74658;SDS011;63186;51.204;6.536;2022-09-09T14:51:12;1.20;;;0.80;;
74658;SDS011;63186;51.204;6.536;2022-09-09T14:53:40;3.03;;;0.95;;
74658;SDS011;63186;51.204;6.536;2022-09-09T14:56:07;1.73;;;0.70;;
74658;SDS011;63186;51.204;6.536;2022-09-09T14:58:34;2.05;;;1.38;;
74658;SDS011;63186;51.204;6.536;2022-09-09T15:01:13;0.82;;;0.68;;
74658;SDS011;63186;51.204;6.536;2022-09-09T15:03:40;2.45;;;0.60;;
74658;SDS011;63186;51.204;6.536;2022-09-09T15:06:10;0.50;;;0.40;;
74658;SDS011;63186;51.204;6.536;2022-09-09T15:08:38;2.38;;;0.45;;
74658;SDS011;63186;51.204;6.536;2022-09-09T15:11:07;0.50;;;0.50;;
74658;SDS011;63186;51.204;6.536;2022-09-09T15:13:33;1.00;;;0.40;;
74658;SDS011;63186;51.204;6.536;2022-09-09T15:16:13;0.65;;;0.50;;
74658;SDS011;63186;51.204;6.536;2022-09-09T15:18:40;1.90;;;0.60;;
74658;SDS011;63186;51.204;6.536;2022-09-09T15:21:07;0.88;;;0.43;;
74658;SDS011;63186;51.204;6.536;2022-09-09T15:23:34;0.50;;;0.50;;
74658;SDS011;63186;51.204;6.536;2022-09-09T15:26:00;1.17;;;0.32;;
74658;SDS011;63186;51.204;6.536;2022-09-09T15:28:26;2.40;;;1.45;;
74658;SDS011;63186;51.204;6.536;2022-09-09T15:30:51;1.17;;;0.60;;
74658;SDS011;63186;51.204;6.536;2022-09-09T15:33:19;2.33;;;0.52;;
74658;SDS011;63186;51.204;6.536;2022-09-09T15:35:45;0.60;;;0.60;;
74658;SDS011;63186;51.204;6.536;2022-09-09T15:38:10;1.10;;;0.60;;
74658;SDS011;63186;51.204;6.536;2022-09-09T15:40:38;0.68;;;0.40;;
74658;SDS011;63186;51.204;6.536;2022-09-09T15:43:04;2.38;;;0.80;;
74658;SDS011;63186;51.204;6.536;2022-09-09T15:45:31;0.65;;;0.40;;
74658;SDS011;63186;51.204;6.536;2022-09-09T15:47:58;0.73;;;0.50;;
74658;SDS011;63186;51.204;6.536;2022-09-09T15:50:24;1.17;;;0.60;;
74658;SDS011;63186;51.204;6.536;2022-09-09T15:52:49;2.13;;;0.90;;
74658;SDS011;63186;51.204;6.536;2022-09-09T15:55:14;0.83;;;0.80;;
74658;SDS011;63186;51.204;6.536;2022-09-09T15:57:40;4.05;;;0.95;;
74658;SDS011;63186;51.204;6.536;2022-09-09T16:00:05;1.90;;;0.90;;
74658;SDS011;63186;51.204;6.536;2022-09-09T16:02:31;3.78;;;1.00;;
74658;SDS011;63186;51.204;6.536;2022-09-09T16:04:57;3.10;;;0.95;;
74658;SDS011;63186;51.204;6.536;2022-09-09T16:07:23;4.30;;;1.17;;
74658;SDS011;63186;51.204;6.536;2022-09-09T16:09:48;6.67;;;1.50;;
74658;SDS011;63186;51.204;6.536;2022-09-09T16:12:16;5.75;;;1.30;;
74658;SDS011;63186;51.204;6.536;2022-09-09T16:14:42;9.05;;;1.33;;
74658;SDS011;63186;51.204;6.536;2022-09-09T16:17:07;4.37;;;1.17;;
74658;SDS011;63186;51.204;6.536;2022-09-09T16:19:32;5.77;;;1.13;;
74658;SDS011;63186;51.204;6.536;2022-09-09T16:21:59;2.70;;;0.95;;
74658;SDS011;63186;51.204;6.536;2022-09-09T16:24:25;5.50;;;1.25;;
74658;SDS011;63186;51.204;6.536;2022-09-09T16:26:52;9.38;;;2.25;;
74658;SDS011;63186;51.204;6.536;2022-09-09T16:29:19;2.78;;;1.50;;
74658;SDS011;63186;51.204;6.536;2022-09-09T16:31:47;3.67;;;1.10;;
74658;SDS011;63186;51.204;6.536;2022-09-09T16:34:13;3.92;;;1.50;;
74658;SDS011;63186;51.204;6.536;2022-09-09T16:36:40;3.33;;;1.33;;
74658;SDS011;63186;51.204;6.536;2022-09-09T16:39:07;4.93;;;1.50;;
74658;SDS011;63186;51.204;6.536;2022-09-09T16:41:35;6.43;;;2.10;;
74658;SDS011;63186;51.204;6.536;2022-09-09T16:44:08;7.63;;;1.70;;
74658;SDS011;63186;51.204;6.536;2022-09-09T16:46:38;7.40;;;1.52;;
74658;SDS011;63186;51.204;6.536;2022-09-09T16:49:07;4.13;;;1.73;;
74658;SDS011;63186;51.204;6.536;2022-09-09T16:51:36;3.88;;;1.30;;
74658;SDS011;63186;51.204;6.536;2022-09-09T16:54:04;5.22;;;1.73;;
74658;SDS011;63186;51.204;6.536;2022-09-09T16:56:32;5.70;;;1.80;;
74658;SDS011;63186;51.204;6.536;2022-09-09T16:59:00;7.30;;;1.63;;
74658;SDS011;63186;51.204;6.536;2022-09-09T17:01:27;4.80;;;1.60;;
74658;SDS011;63186;51.204;6.536;2022-09-09T17:03:55;7.00;;;2.50;;
74658;SDS011;63186;51.204;6.536;2022-09-09T17:06:23;4.68;;;1.40;;
74658;SDS011;63186;51.204;6.536;2022-09-09T17:08:56;3.40;;;1.25;;